sensor_id;sensor_type;location;lat;lon;timestamp;temperature;humidity
11083;DHT22;5595;50.186;8.468;2022-08-03T00:01:05;19.30;95.10
11083;DHT22;5595;50.186;8.468;2022-08-03T00:03:32;19.30;95.20
11083;DHT22;5595;50.186;8.468;2022-08-03T00:05:59;19.30;95.20
11083;DHT22;5595;50.186;8.468;2022-08-03T00:08:26;19.30;95.30
11083;DHT22;5595;50.186;8.468;2022-08-03T00:10:53;19.30;95.30
11083;DHT22;5595;50.186;8.468;2022-08-03T00:13:20;19.20;95.30
11083;DHT22;5595;50.186;8.468;2022-08-03T00:15:49;19.20;95.50
11083;DHT22;5595;50.186;8.468;2022-08-03T00:18:16;19.20;95.50
11083;DHT22;5595;50.186;8.468;2022-08-03T00:20:43;19.20;95.60
11083;DHT22;5595;50.186;8.468;2022-08-03T00:23:10;19.20;95.80
11083;DHT22;5595;50.186;8.468;2022-08-03T00:25:37;19.10;95.80
11083;DHT22;5595;50.186;8.468;2022-08-03T00:28:04;19.10;95.90
11083;DHT22;5595;50.186;8.468;2022-08-03T00:30:34;19.10;96.00
11083;DHT22;5595;50.186;8.468;2022-08-03T00:33:05;19.10;96.40
11083;DHT22;5595;50.186;8.468;2022-08-03T00:35:31;19.10;96.10
11083;DHT22;5595;50.186;8.468;2022-08-03T00:37:58;19.10;96.10
11083;DHT22;5595;50.186;8.468;2022-08-03T00:40:26;19.10;96.20
11083;DHT22;5595;50.186;8.468;2022-08-03T00:42:54;19.00;96.30
11083;DHT22;5595;50.186;8.468;2022-08-03T00:45:23;19.00;96.40
11083;DHT22;5595;50.186;8.468;2022-08-03T00:47:50;19.00;96.60
11083;DHT22;5595;50.186;8.468;2022-08-03T00:50:20;18.90;97.00
11083;DHT22;5595;50.186;8.468;2022-08-03T00:52:48;18.90;96.70
11083;DHT22;5595;50.186;8.468;2022-08-03T00:55:15;18.80;96.80
11083;DHT22;5595;50.186;8.468;2022-08-03T00:57:42;18.90;96.90
11083;DHT22;5595;50.186;8.468;2022-08-03T01:00:11;18.90;97.00
11083;DHT22;5595;50.186;8.468;2022-08-03T01:02:39;18.90;97.00
11083;DHT22;5595;50.186;8.468;2022-08-03T01:05:07;18.90;97.50
11083;DHT22;5595;50.186;8.468;2022-08-03T01:07:46;18.80;97.10
11083;DHT22;5595;50.186;8.468;2022-08-03T01:10:23;18.80;97.30
11083;DHT22;5595;50.186;8.468;2022-08-03T01:12:56;18.70;97.30
11083;DHT22;5595;50.186;8.468;2022-08-03T01:15:30;18.70;97.50
11083;DHT22;5595;50.186;8.468;2022-08-03T01:18:06;18.70;97.50
11083;DHT22;5595;50.186;8.468;2022-08-03T01:20:38;18.70;97.60
11083;DHT22;5595;50.186;8.468;2022-08-03T01:23:45;18.70;97.90
11083;DHT22;5595;50.186;8.468;2022-08-03T01:26:50;18.60;97.70
11083;DHT22;5595;50.186;8.468;2022-08-03T01:32:27;18.60;98.00
11083;DHT22;5595;50.186;8.468;2022-08-03T01:34:59;18.60;98.10
11083;DHT22;5595;50.186;8.468;2022-08-03T01:37:38;18.50;98.20
11083;DHT22;5595;50.186;8.468;2022-08-03T01:40:11;18.50;98.20
11083;DHT22;5595;50.186;8.468;2022-08-03T01:42:40;18.50;98.40
11083;DHT22;5595;50.186;8.468;2022-08-03T01:45:11;18.50;98.40
11083;DHT22;5595;50.186;8.468;2022-08-03T01:47:42;18.50;98.90
11083;DHT22;5595;50.186;8.468;2022-08-03T01:50:11;18.50;98.60
11083;DHT22;5595;50.186;8.468;2022-08-03T01:52:39;18.50;98.60
11083;DHT22;5595;50.186;8.468;2022-08-03T01:55:09;18.40;98.60
11083;DHT22;5595;50.186;8.468;2022-08-03T01:57:43;18.40;98.60
11083;DHT22;5595;50.186;8.468;2022-08-03T02:00:13;18.40;98.80
11083;DHT22;5595;50.186;8.468;2022-08-03T02:02:41;18.40;98.80
11083;DHT22;5595;50.186;8.468;2022-08-03T02:05:10;18.40;98.80
11083;DHT22;5595;50.186;8.468;2022-08-03T02:07:40;18.40;98.80
11083;DHT22;5595;50.186;8.468;2022-08-03T02:10:09;18.40;98.90
11083;DHT22;5595;50.186;8.468;2022-08-03T02:12:37;18.40;98.90
11083;DHT22;5595;50.186;8.468;2022-08-03T02:15:06;18.30;98.90
11083;DHT22;5595;50.186;8.468;2022-08-03T02:17:35;18.30;99.10
11083;DHT22;5595;50.186;8.468;2022-08-03T02:20:04;18.30;99.10
11083;DHT22;5595;50.186;8.468;2022-08-03T02:22:32;18.30;99.20
11083;DHT22;5595;50.186;8.468;2022-08-03T02:25:00;18.30;99.20
11083;DHT22;5595;50.186;8.468;2022-08-03T02:27:28;18.30;99.20
11083;DHT22;5595;50.186;8.468;2022-08-03T02:30:00;18.30;99.20
11083;DHT22;5595;50.186;8.468;2022-08-03T02:32:31;18.20;99.20
11083;DHT22;5595;50.186;8.468;2022-08-03T02:35:03;18.20;99.30
11083;DHT22;5595;50.186;8.468;2022-08-03T02:37:34;18.20;99.40
11083;DHT22;5595;50.186;8.468;2022-08-03T02:40:04;18.20;99.40
11083;DHT22;5595;50.186;8.468;2022-08-03T02:42:32;18.10;99.40
11083;DHT22;5595;50.186;8.468;2022-08-03T02:45:03;18.20;99.50
11083;DHT22;5595;50.186;8.468;2022-08-03T02:47:35;18.20;99.60
11083;DHT22;5595;50.186;8.468;2022-08-03T02:50:06;18.10;99.50
11083;DHT22;5595;50.186;8.468;2022-08-03T02:52:34;18.10;99.70
11083;DHT22;5595;50.186;8.468;2022-08-03T02:55:03;18.10;99.70
11083;DHT22;5595;50.186;8.468;2022-08-03T02:57:35;18.10;99.70
11083;DHT22;5595;50.186;8.468;2022-08-03T03:00:04;18.10;99.80
11083;DHT22;5595;50.186;8.468;2022-08-03T03:02:32;18.10;99.70
11083;DHT22;5595;50.186;8.468;2022-08-03T03:05:00;18.10;99.70
11083;DHT22;5595;50.186;8.468;2022-08-03T03:07:29;18.10;99.70
11083;DHT22;5595;50.186;8.468;2022-08-03T03:09:57;18.10;99.70
11083;DHT22;5595;50.186;8.468;2022-08-03T03:12:25;18.10;99.70
11083;DHT22;5595;50.186;8.468;2022-08-03T03:14:52;18.10;99.60
11083;DHT22;5595;50.186;8.468;2022-08-03T03:17:19;18.10;99.60
11083;DHT22;5595;50.186;8.468;2022-08-03T03:19:48;18.10;99.60
11083;DHT22;5595;50.186;8.468;2022-08-03T03:22:16;18.10;99.90
11083;DHT22;5595;50.186;8.468;2022-08-03T03:24:45;18.10;99.90
11083;DHT22;5595;50.186;8.468;2022-08-03T03:27:14;18.00;99.80
11083;DHT22;5595;50.186;8.468;2022-08-03T03:29:41;18.10;99.80
11083;DHT22;5595;50.186;8.468;2022-08-03T03:32:11;18.00;99.80
11083;DHT22;5595;50.186;8.468;2022-08-03T03:34:38;18.00;99.90
11083;DHT22;5595;50.186;8.468;2022-08-03T03:37:05;18.00;99.80
11083;DHT22;5595;50.186;8.468;2022-08-03T03:39:32;18.00;99.80
11083;DHT22;5595;50.186;8.468;2022-08-03T03:42:02;18.00;99.80
11083;DHT22;5595;50.186;8.468;2022-08-03T03:44:30;18.00;99.80
11083;DHT22;5595;50.186;8.468;2022-08-03T03:46:57;18.00;99.80
11083;DHT22;5595;50.186;8.468;2022-08-03T03:49:24;18.00;99.70
11083;DHT22;5595;50.186;8.468;2022-08-03T03:51:52;18.00;99.70
11083;DHT22;5595;50.186;8.468;2022-08-03T03:54:19;18.00;99.80
11083;DHT22;5595;50.186;8.468;2022-08-03T03:56:49;18.00;99.90
11083;DHT22;5595;50.186;8.468;2022-08-03T03:59:20;18.00;99.90
11083;DHT22;5595;50.186;8.468;2022-08-03T04:01:50;17.90;99.90
11083;DHT22;5595;50.186;8.468;2022-08-03T04:04:17;17.90;99.90
11083;DHT22;5595;50.186;8.468;2022-08-03T04:07:01;17.90;99.90
11083;DHT22;5595;50.186;8.468;2022-08-03T04:09:46;17.90;99.90
11083;DHT22;5595;50.186;8.468;2022-08-03T04:12:31;17.90;99.90
11083;DHT22;5595;50.186;8.468;2022-08-03T04:15:00;17.90;99.90
11083;DHT22;5595;50.186;8.468;2022-08-03T04:17:29;17.90;99.90
11083;DHT22;5595;50.186;8.468;2022-08-03T04:19:57;17.90;99.90
11083;DHT22;5595;50.186;8.468;2022-08-03T04:22:27;17.90;99.90
11083;DHT22;5595;50.186;8.468;2022-08-03T04:25:06;17.90;99.90
11083;DHT22;5595;50.186;8.468;2022-08-03T04:27:37;17.90;99.90
11083;DHT22;5595;50.186;8.468;2022-08-03T04:30:08;17.90;99.90
11083;DHT22;5595;50.186;8.468;2022-08-03T04:32:36;17.90;99.90
11083;DHT22;5595;50.186;8.468;2022-08-03T04:35:05;17.90;99.90
11083;DHT22;5595;50.186;8.468;2022-08-03T04:37:38;18.00;99.90
11083;DHT22;5595;50.186;8.468;2022-08-03T04:40:08;18.00;99.90
11083;DHT22;5595;50.186;8.468;2022-08-03T04:42:36;18.00;99.90
11083;DHT22;5595;50.186;8.468;2022-08-03T04:45:07;18.00;99.90
11083;DHT22;5595;50.186;8.468;2022-08-03T04:47:37;18.10;99.90
11083;DHT22;5595;50.186;8.468;2022-08-03T04:50:05;18.10;99.90
11083;DHT22;5595;50.186;8.468;2022-08-03T04:52:33;18.10;99.90
11083;DHT22;5595;50.186;8.468;2022-08-03T04:55:00;18.10;99.90
11083;DHT22;5595;50.186;8.468;2022-08-03T04:57:27;18.10;99.90
11083;DHT22;5595;50.186;8.468;2022-08-03T04:59:54;18.20;99.90
11083;DHT22;5595;50.186;8.468;2022-08-03T05:02:22;18.20;99.90
11083;DHT22;5595;50.186;8.468;2022-08-03T05:04:49;18.30;99.90
11083;DHT22;5595;50.186;8.468;2022-08-03T05:07:17;18.30;99.90
11083;DHT22;5595;50.186;8.468;2022-08-03T05:09:44;18.30;99.90
11083;DHT22;5595;50.186;8.468;2022-08-03T05:12:11;18.40;99.90
11083;DHT22;5595;50.186;8.468;2022-08-03T05:14:38;18.40;99.90
11083;DHT22;5595;50.186;8.468;2022-08-03T05:17:05;18.40;99.90
11083;DHT22;5595;50.186;8.468;2022-08-03T05:19:34;18.50;99.90
11083;DHT22;5595;50.186;8.468;2022-08-03T05:22:01;18.60;99.90
11083;DHT22;5595;50.186;8.468;2022-08-03T05:24:27;18.60;99.90
11083;DHT22;5595;50.186;8.468;2022-08-03T05:26:54;18.70;99.90
11083;DHT22;5595;50.186;8.468;2022-08-03T05:29:21;18.80;99.90
11083;DHT22;5595;50.186;8.468;2022-08-03T05:31:48;18.90;99.90
11083;DHT22;5595;50.186;8.468;2022-08-03T05:34:15;19.10;99.90
11083;DHT22;5595;50.186;8.468;2022-08-03T05:36:43;19.20;99.90
11083;DHT22;5595;50.186;8.468;2022-08-03T05:39:12;19.40;99.90
11083;DHT22;5595;50.186;8.468;2022-08-03T05:41:39;19.50;99.90
11083;DHT22;5595;50.186;8.468;2022-08-03T05:44:06;19.60;99.90
11083;DHT22;5595;50.186;8.468;2022-08-03T05:46:33;19.60;99.90
11083;DHT22;5595;50.186;8.468;2022-08-03T05:49:00;19.60;99.90
11083;DHT22;5595;50.186;8.468;2022-08-03T05:51:27;19.80;99.90
11083;DHT22;5595;50.186;8.468;2022-08-03T05:53:55;19.90;99.90
11083;DHT22;5595;50.186;8.468;2022-08-03T05:56:22;20.00;99.90
11083;DHT22;5595;50.186;8.468;2022-08-03T05:58:50;20.00;99.90
11083;DHT22;5595;50.186;8.468;2022-08-03T06:01:18;20.10;99.90
11083;DHT22;5595;50.186;8.468;2022-08-03T06:03:47;20.20;99.90
11083;DHT22;5595;50.186;8.468;2022-08-03T06:06:14;20.20;99.90
11083;DHT22;5595;50.186;8.468;2022-08-03T06:08:42;20.30;99.90
11083;DHT22;5595;50.186;8.468;2022-08-03T06:11:11;20.50;99.90
11083;DHT22;5595;50.186;8.468;2022-08-03T06:13:38;20.60;99.90
11083;DHT22;5595;50.186;8.468;2022-08-03T06:16:06;20.70;99.60
11083;DHT22;5595;50.186;8.468;2022-08-03T06:18:33;20.90;99.50
11083;DHT22;5595;50.186;8.468;2022-08-03T06:21:00;21.00;99.10
11083;DHT22;5595;50.186;8.468;2022-08-03T06:23:27;21.10;99.00
11083;DHT22;5595;50.186;8.468;2022-08-03T06:25:54;21.20;98.90
11083;DHT22;5595;50.186;8.468;2022-08-03T06:28:22;21.40;98.80
11083;DHT22;5595;50.186;8.468;2022-08-03T06:30:49;21.50;98.60
11083;DHT22;5595;50.186;8.468;2022-08-03T06:33:17;21.70;98.50
11083;DHT22;5595;50.186;8.468;2022-08-03T06:35:44;21.80;98.20
11083;DHT22;5595;50.186;8.468;2022-08-03T06:38:13;21.90;97.90
11083;DHT22;5595;50.186;8.468;2022-08-03T06:40:39;22.10;98.00
11083;DHT22;5595;50.186;8.468;2022-08-03T06:43:07;22.20;97.90
11083;DHT22;5595;50.186;8.468;2022-08-03T06:45:37;22.40;97.90
11083;DHT22;5595;50.186;8.468;2022-08-03T06:48:05;22.50;97.80
11083;DHT22;5595;50.186;8.468;2022-08-03T06:50:34;22.60;97.70
11083;DHT22;5595;50.186;8.468;2022-08-03T06:53:03;22.80;97.70
11083;DHT22;5595;50.186;8.468;2022-08-03T06:55:30;22.90;97.50
11083;DHT22;5595;50.186;8.468;2022-08-03T06:58:01;23.10;97.40
11083;DHT22;5595;50.186;8.468;2022-08-03T07:00:28;23.20;97.30
11083;DHT22;5595;50.186;8.468;2022-08-03T07:02:57;23.30;97.20
11083;DHT22;5595;50.186;8.468;2022-08-03T07:05:24;23.50;96.80
11083;DHT22;5595;50.186;8.468;2022-08-03T07:07:54;23.60;96.40
11083;DHT22;5595;50.186;8.468;2022-08-03T07:10:21;23.70;96.10
11083;DHT22;5595;50.186;8.468;2022-08-03T07:12:48;23.90;95.60
11083;DHT22;5595;50.186;8.468;2022-08-03T07:15:15;24.00;95.00
11083;DHT22;5595;50.186;8.468;2022-08-03T07:17:43;24.20;94.70
11083;DHT22;5595;50.186;8.468;2022-08-03T07:20:12;24.30;93.70
11083;DHT22;5595;50.186;8.468;2022-08-03T07:22:40;24.40;92.60
11083;DHT22;5595;50.186;8.468;2022-08-03T07:25:08;24.60;92.50
11083;DHT22;5595;50.186;8.468;2022-08-03T07:27:35;24.70;91.90
11083;DHT22;5595;50.186;8.468;2022-08-03T07:30:08;24.80;91.20
11083;DHT22;5595;50.186;8.468;2022-08-03T07:32:35;24.90;90.70
11083;DHT22;5595;50.186;8.468;2022-08-03T07:35:02;25.00;90.80
11083;DHT22;5595;50.186;8.468;2022-08-03T07:37:31;25.10;90.30
11083;DHT22;5595;50.186;8.468;2022-08-03T07:39:59;25.30;89.70
11083;DHT22;5595;50.186;8.468;2022-08-03T07:42:26;25.30;89.30
11083;DHT22;5595;50.186;8.468;2022-08-03T07:44:53;25.40;88.10
11083;DHT22;5595;50.186;8.468;2022-08-03T07:47:22;25.50;87.90
11083;DHT22;5595;50.186;8.468;2022-08-03T07:49:50;25.50;87.60
11083;DHT22;5595;50.186;8.468;2022-08-03T07:52:17;25.50;87.00
11083;DHT22;5595;50.186;8.468;2022-08-03T07:55:03;25.60;86.60
11083;DHT22;5595;50.186;8.468;2022-08-03T07:57:31;25.70;86.00
11083;DHT22;5595;50.186;8.468;2022-08-03T07:59:58;25.70;85.20
11083;DHT22;5595;50.186;8.468;2022-08-03T08:02:25;25.80;85.80
11083;DHT22;5595;50.186;8.468;2022-08-03T08:04:52;25.80;84.50
11083;DHT22;5595;50.186;8.468;2022-08-03T08:07:19;25.90;83.70
11083;DHT22;5595;50.186;8.468;2022-08-03T08:09:46;26.00;83.40
11083;DHT22;5595;50.186;8.468;2022-08-03T08:12:15;26.10;83.10
11083;DHT22;5595;50.186;8.468;2022-08-03T08:14:42;26.10;82.20
11083;DHT22;5595;50.186;8.468;2022-08-03T08:17:10;26.20;81.50
11083;DHT22;5595;50.186;8.468;2022-08-03T08:19:37;26.30;81.10
11083;DHT22;5595;50.186;8.468;2022-08-03T08:22:04;26.30;80.50
11083;DHT22;5595;50.186;8.468;2022-08-03T08:24:31;26.40;79.90
11083;DHT22;5595;50.186;8.468;2022-08-03T08:27:01;26.50;78.60
11083;DHT22;5595;50.186;8.468;2022-08-03T08:29:29;26.60;78.20
11083;DHT22;5595;50.186;8.468;2022-08-03T08:31:56;26.70;77.90
11083;DHT22;5595;50.186;8.468;2022-08-03T08:34:25;26.70;77.40
11083;DHT22;5595;50.186;8.468;2022-08-03T08:36:52;26.80;77.20
11083;DHT22;5595;50.186;8.468;2022-08-03T08:39:21;26.80;76.80
11083;DHT22;5595;50.186;8.468;2022-08-03T08:41:50;26.80;76.70
11083;DHT22;5595;50.186;8.468;2022-08-03T08:44:17;26.80;76.50
11083;DHT22;5595;50.186;8.468;2022-08-03T08:46:47;26.80;76.40
11083;DHT22;5595;50.186;8.468;2022-08-03T08:49:16;26.90;76.20
11083;DHT22;5595;50.186;8.468;2022-08-03T08:51:46;26.90;75.20
11083;DHT22;5595;50.186;8.468;2022-08-03T08:54:14;26.90;75.20
11083;DHT22;5595;50.186;8.468;2022-08-03T08:56:44;26.90;75.10
11083;DHT22;5595;50.186;8.468;2022-08-03T08:59:11;27.00;74.00
11083;DHT22;5595;50.186;8.468;2022-08-03T09:01:38;27.10;72.50
11083;DHT22;5595;50.186;8.468;2022-08-03T09:04:06;27.20;72.40
11083;DHT22;5595;50.186;8.468;2022-08-03T09:06:34;27.20;73.00
11083;DHT22;5595;50.186;8.468;2022-08-03T09:09:01;27.20;72.60
11083;DHT22;5595;50.186;8.468;2022-08-03T09:11:31;27.20;72.70
11083;DHT22;5595;50.186;8.468;2022-08-03T09:13:58;27.30;72.50
11083;DHT22;5595;50.186;8.468;2022-08-03T09:16:25;27.30;72.40
11083;DHT22;5595;50.186;8.468;2022-08-03T09:18:53;27.40;72.10
11083;DHT22;5595;50.186;8.468;2022-08-03T09:21:23;27.40;71.60
11083;DHT22;5595;50.186;8.468;2022-08-03T09:23:52;27.30;71.70
11083;DHT22;5595;50.186;8.468;2022-08-03T09:26:20;27.40;71.20
11083;DHT22;5595;50.186;8.468;2022-08-03T09:28:54;27.50;70.90
11083;DHT22;5595;50.186;8.468;2022-08-03T09:31:32;27.50;70.80
11083;DHT22;5595;50.186;8.468;2022-08-03T09:34:01;27.50;70.70
11083;DHT22;5595;50.186;8.468;2022-08-03T09:36:38;27.60;70.40
11083;DHT22;5595;50.186;8.468;2022-08-03T09:39:07;27.60;70.30
11083;DHT22;5595;50.186;8.468;2022-08-03T09:41:37;27.60;70.20
11083;DHT22;5595;50.186;8.468;2022-08-03T09:44:05;27.70;69.90
11083;DHT22;5595;50.186;8.468;2022-08-03T09:46:47;27.80;69.40
11083;DHT22;5595;50.186;8.468;2022-08-03T09:49:14;27.90;69.00
11083;DHT22;5595;50.186;8.468;2022-08-03T09:51:42;28.00;68.90
11083;DHT22;5595;50.186;8.468;2022-08-03T09:54:24;28.00;68.70
11083;DHT22;5595;50.186;8.468;2022-08-03T09:56:51;28.00;68.50
11083;DHT22;5595;50.186;8.468;2022-08-03T09:59:23;27.90;68.60
11083;DHT22;5595;50.186;8.468;2022-08-03T10:01:51;27.90;68.60
11083;DHT22;5595;50.186;8.468;2022-08-03T10:04:18;28.00;68.30
11083;DHT22;5595;50.186;8.468;2022-08-03T10:07:04;28.00;68.10
11083;DHT22;5595;50.186;8.468;2022-08-03T10:09:31;28.10;67.90
11083;DHT22;5595;50.186;8.468;2022-08-03T10:12:07;28.00;67.90
11083;DHT22;5595;50.186;8.468;2022-08-03T10:14:36;28.10;67.90
11083;DHT22;5595;50.186;8.468;2022-08-03T10:17:04;28.00;67.70
11083;DHT22;5595;50.186;8.468;2022-08-03T10:19:31;27.90;67.70
11083;DHT22;5595;50.186;8.468;2022-08-03T10:22:03;28.00;67.50
11083;DHT22;5595;50.186;8.468;2022-08-03T10:24:33;28.00;67.20
11083;DHT22;5595;50.186;8.468;2022-08-03T10:27:03;28.10;67.10
11083;DHT22;5595;50.186;8.468;2022-08-03T10:29:36;28.20;66.80
11083;DHT22;5595;50.186;8.468;2022-08-03T10:32:05;28.10;66.40
11083;DHT22;5595;50.186;8.468;2022-08-03T10:34:37;28.00;66.40
11083;DHT22;5595;50.186;8.468;2022-08-03T10:37:09;28.10;66.60
11083;DHT22;5595;50.186;8.468;2022-08-03T10:39:37;28.20;66.20
11083;DHT22;5595;50.186;8.468;2022-08-03T10:42:19;28.30;65.60
11083;DHT22;5595;50.186;8.468;2022-08-03T10:44:49;28.40;65.60
11083;DHT22;5595;50.186;8.468;2022-08-03T10:47:18;28.30;65.30
11083;DHT22;5595;50.186;8.468;2022-08-03T10:49:47;28.20;65.50
11083;DHT22;5595;50.186;8.468;2022-08-03T10:52:16;28.20;65.50
11083;DHT22;5595;50.186;8.468;2022-08-03T10:54:44;28.10;65.50
11083;DHT22;5595;50.186;8.468;2022-08-03T10:57:45;28.10;65.40
11083;DHT22;5595;50.186;8.468;2022-08-03T11:00:14;28.30;64.60
11083;DHT22;5595;50.186;8.468;2022-08-03T11:03:07;28.30;64.50
11083;DHT22;5595;50.186;8.468;2022-08-03T11:05:37;28.40;64.20
11083;DHT22;5595;50.186;8.468;2022-08-03T11:08:21;28.50;64.20
11083;DHT22;5595;50.186;8.468;2022-08-03T11:10:50;28.70;63.00
11083;DHT22;5595;50.186;8.468;2022-08-03T11:13:19;28.80;62.70
11083;DHT22;5595;50.186;8.468;2022-08-03T11:15:48;28.80;62.70
11083;DHT22;5595;50.186;8.468;2022-08-03T11:18:16;28.60;63.10
11083;DHT22;5595;50.186;8.468;2022-08-03T11:20:47;28.40;63.00
11083;DHT22;5595;50.186;8.468;2022-08-03T11:23:16;28.50;62.90
11083;DHT22;5595;50.186;8.468;2022-08-03T11:26:14;28.60;62.80
11083;DHT22;5595;50.186;8.468;2022-08-03T11:28:42;28.70;62.30
11083;DHT22;5595;50.186;8.468;2022-08-03T11:34:13;28.90;61.30
11083;DHT22;5595;50.186;8.468;2022-08-03T11:39:46;29.00;60.50
11083;DHT22;5595;50.186;8.468;2022-08-03T11:42:42;29.00;60.60
11083;DHT22;5595;50.186;8.468;2022-08-03T11:45:16;29.00;60.80
11083;DHT22;5595;50.186;8.468;2022-08-03T11:47:44;28.90;61.10
11083;DHT22;5595;50.186;8.468;2022-08-03T11:50:12;28.80;60.80
11083;DHT22;5595;50.186;8.468;2022-08-03T11:52:41;28.90;60.80
11083;DHT22;5595;50.186;8.468;2022-08-03T11:55:13;28.90;59.60
11083;DHT22;5595;50.186;8.468;2022-08-03T11:57:42;29.00;59.60
11083;DHT22;5595;50.186;8.468;2022-08-03T12:00:25;29.00;60.00
11083;DHT22;5595;50.186;8.468;2022-08-03T12:03:06;29.00;60.00
11083;DHT22;5595;50.186;8.468;2022-08-03T12:05:45;28.90;60.40
11083;DHT22;5595;50.186;8.468;2022-08-03T12:08:15;28.70;60.70
11083;DHT22;5595;50.186;8.468;2022-08-03T12:10:47;28.70;60.60
11083;DHT22;5595;50.186;8.468;2022-08-03T12:13:17;28.80;60.20
11083;DHT22;5595;50.186;8.468;2022-08-03T12:15:49;28.80;60.20
11083;DHT22;5595;50.186;8.468;2022-08-03T12:18:17;28.70;60.10
11083;DHT22;5595;50.186;8.468;2022-08-03T12:20:45;28.70;60.40
11083;DHT22;5595;50.186;8.468;2022-08-03T12:23:12;28.70;60.20
11083;DHT22;5595;50.186;8.468;2022-08-03T12:25:40;28.80;59.90
11083;DHT22;5595;50.186;8.468;2022-08-03T12:28:10;28.70;59.60
11083;DHT22;5595;50.186;8.468;2022-08-03T12:30:39;28.80;59.70
11083;DHT22;5595;50.186;8.468;2022-08-03T12:33:13;28.70;59.40
11083;DHT22;5595;50.186;8.468;2022-08-03T12:35:40;28.80;59.40
11083;DHT22;5595;50.186;8.468;2022-08-03T12:38:07;28.90;59.40
11083;DHT22;5595;50.186;8.468;2022-08-03T12:40:35;28.80;59.00
11083;DHT22;5595;50.186;8.468;2022-08-03T12:43:10;28.70;59.20
11083;DHT22;5595;50.186;8.468;2022-08-03T12:45:39;28.80;58.90
11083;DHT22;5595;50.186;8.468;2022-08-03T12:48:09;28.70;58.90
11083;DHT22;5595;50.186;8.468;2022-08-03T12:50:38;28.60;58.90
11083;DHT22;5595;50.186;8.468;2022-08-03T12:53:09;28.70;58.70
11083;DHT22;5595;50.186;8.468;2022-08-03T12:55:37;29.00;58.30
11083;DHT22;5595;50.186;8.468;2022-08-03T12:58:06;29.10;57.90
11083;DHT22;5595;50.186;8.468;2022-08-03T13:00:35;29.10;57.80
11083;DHT22;5595;50.186;8.468;2022-08-03T13:03:05;29.10;57.80
11083;DHT22;5595;50.186;8.468;2022-08-03T13:05:42;29.10;57.90
11083;DHT22;5595;50.186;8.468;2022-08-03T13:08:17;29.00;57.80
11083;DHT22;5595;50.186;8.468;2022-08-03T13:10:44;28.80;58.00
11083;DHT22;5595;50.186;8.468;2022-08-03T13:13:11;28.80;58.20
11083;DHT22;5595;50.186;8.468;2022-08-03T13:15:38;28.90;57.70
11083;DHT22;5595;50.186;8.468;2022-08-03T13:18:08;29.00;57.70
11083;DHT22;5595;50.186;8.468;2022-08-03T13:20:35;29.00;57.80
11083;DHT22;5595;50.186;8.468;2022-08-03T13:23:03;29.00;58.00
11083;DHT22;5595;50.186;8.468;2022-08-03T13:25:30;29.00;57.30
11083;DHT22;5595;50.186;8.468;2022-08-03T13:27:59;29.30;56.60
11083;DHT22;5595;50.186;8.468;2022-08-03T13:30:29;29.50;56.30
11083;DHT22;5595;50.186;8.468;2022-08-03T13:32:57;29.50;56.50
11083;DHT22;5595;50.186;8.468;2022-08-03T13:35:26;29.30;56.70
11083;DHT22;5595;50.186;8.468;2022-08-03T13:37:53;29.30;56.90
11083;DHT22;5595;50.186;8.468;2022-08-03T13:40:21;29.20;57.10
11083;DHT22;5595;50.186;8.468;2022-08-03T13:42:48;29.10;57.20
11083;DHT22;5595;50.186;8.468;2022-08-03T13:45:15;29.00;57.00
11083;DHT22;5595;50.186;8.468;2022-08-03T13:47:42;29.00;57.20
11083;DHT22;5595;50.186;8.468;2022-08-03T13:50:09;29.10;57.10
11083;DHT22;5595;50.186;8.468;2022-08-03T13:52:38;29.00;57.00
11083;DHT22;5595;50.186;8.468;2022-08-03T13:55:06;29.00;57.00
11083;DHT22;5595;50.186;8.468;2022-08-03T13:57:34;28.90;57.00
11083;DHT22;5595;50.186;8.468;2022-08-03T14:00:01;28.90;57.00
11083;DHT22;5595;50.186;8.468;2022-08-03T14:02:29;28.80;57.20
11083;DHT22;5595;50.186;8.468;2022-08-03T14:04:56;28.70;56.90
11083;DHT22;5595;50.186;8.468;2022-08-03T14:07:25;28.80;56.90
11083;DHT22;5595;50.186;8.468;2022-08-03T14:09:56;28.80;56.50
11083;DHT22;5595;50.186;8.468;2022-08-03T14:12:23;28.80;56.60
11083;DHT22;5595;50.186;8.468;2022-08-03T14:14:53;28.80;56.50
11083;DHT22;5595;50.186;8.468;2022-08-03T14:17:20;28.80;55.80
11083;DHT22;5595;50.186;8.468;2022-08-03T14:19:47;28.90;56.00
11083;DHT22;5595;50.186;8.468;2022-08-03T14:22:14;28.90;56.00
11083;DHT22;5595;50.186;8.468;2022-08-03T14:24:41;28.80;56.20
11083;DHT22;5595;50.186;8.468;2022-08-03T14:27:10;28.70;56.00
11083;DHT22;5595;50.186;8.468;2022-08-03T14:32:54;28.60;56.50
11083;DHT22;5595;50.186;8.468;2022-08-03T14:38:42;28.40;56.70
11083;DHT22;5595;50.186;8.468;2022-08-03T14:41:17;28.40;56.50
11083;DHT22;5595;50.186;8.468;2022-08-03T14:43:46;28.60;56.20
11083;DHT22;5595;50.186;8.468;2022-08-03T14:46:15;28.70;55.50
11083;DHT22;5595;50.186;8.468;2022-08-03T14:48:42;28.90;55.40
11083;DHT22;5595;50.186;8.468;2022-08-03T14:51:10;28.80;55.10
11083;DHT22;5595;50.186;8.468;2022-08-03T14:53:37;28.90;55.10
11083;DHT22;5595;50.186;8.468;2022-08-03T14:56:05;28.80;55.30
11083;DHT22;5595;50.186;8.468;2022-08-03T14:58:32;28.70;55.20
11083;DHT22;5595;50.186;8.468;2022-08-03T15:01:00;28.70;55.10
11083;DHT22;5595;50.186;8.468;2022-08-03T15:03:28;28.70;55.20
11083;DHT22;5595;50.186;8.468;2022-08-03T15:05:56;28.60;55.40
11083;DHT22;5595;50.186;8.468;2022-08-03T15:08:25;28.70;55.10
11083;DHT22;5595;50.186;8.468;2022-08-03T15:10:53;28.80;54.80
11083;DHT22;5595;50.186;8.468;2022-08-03T15:13:21;29.10;54.70
11083;DHT22;5595;50.186;8.468;2022-08-03T15:15:49;29.20;54.30
11083;DHT22;5595;50.186;8.468;2022-08-03T15:18:18;29.40;54.10
11083;DHT22;5595;50.186;8.468;2022-08-03T15:20:46;29.60;53.80
11083;DHT22;5595;50.186;8.468;2022-08-03T15:23:15;29.70;53.80
11083;DHT22;5595;50.186;8.468;2022-08-03T15:25:43;29.70;53.80
11083;DHT22;5595;50.186;8.468;2022-08-03T15:28:11;29.80;53.80
11083;DHT22;5595;50.186;8.468;2022-08-03T15:30:38;29.80;53.50
11083;DHT22;5595;50.186;8.468;2022-08-03T15:33:05;29.70;53.50
11083;DHT22;5595;50.186;8.468;2022-08-03T15:35:34;29.70;53.40
11083;DHT22;5595;50.186;8.468;2022-08-03T15:38:01;29.80;53.20
11083;DHT22;5595;50.186;8.468;2022-08-03T15:40:29;29.80;53.10
11083;DHT22;5595;50.186;8.468;2022-08-03T15:42:56;29.80;53.20
11083;DHT22;5595;50.186;8.468;2022-08-03T15:45:25;29.80;53.40
11083;DHT22;5595;50.186;8.468;2022-08-03T15:47:53;29.80;53.50
11083;DHT22;5595;50.186;8.468;2022-08-03T15:50:20;29.80;53.40
11083;DHT22;5595;50.186;8.468;2022-08-03T15:52:48;29.80;53.60
11083;DHT22;5595;50.186;8.468;2022-08-03T15:55:15;29.80;53.50
11083;DHT22;5595;50.186;8.468;2022-08-03T15:57:42;29.80;53.50
11083;DHT22;5595;50.186;8.468;2022-08-03T16:00:11;29.80;53.60
11083;DHT22;5595;50.186;8.468;2022-08-03T16:02:41;29.80;53.20
11083;DHT22;5595;50.186;8.468;2022-08-03T16:05:09;29.80;53.00
11083;DHT22;5595;50.186;8.468;2022-08-03T16:07:36;29.80;52.80
11083;DHT22;5595;50.186;8.468;2022-08-03T16:10:12;29.80;52.90
11083;DHT22;5595;50.186;8.468;2022-08-03T16:12:40;29.80;52.90
11083;DHT22;5595;50.186;8.468;2022-08-03T16:15:08;29.80;53.00